createdAt,value
2017-09-10T00:00:47.982Z,1.8
2017-09-10T00:01:50.369Z,1.6
2017-09-10T00:02:52.769Z,1.8
2017-09-10T00:03:55.167Z,1.8
2017-09-10T00:04:57.562Z,1.6
2017-09-10T00:05:59.963Z,1.7
2017-09-10T00:07:02.360Z,1.8
2017-09-10T00:08:04.759Z,1.7
2017-09-10T00:09:07.158Z,1.8
2017-09-10T00:10:09.556Z,1.8
2017-09-10T00:11:11.950Z,1.8
2017-09-10T00:12:14.350Z,1.7
2017-09-10T00:13:16.752Z,1.7
2017-09-10T00:14:19.164Z,1.8
2017-09-10T00:15:21.562Z,1.6
2017-09-10T00:16:23.965Z,1.7
2017-09-10T00:17:26.357Z,1.7
2017-09-10T00:18:28.753Z,1.8
2017-09-10T00:19:31.147Z,1.8
2017-09-10T00:20:33.545Z,1.7
2017-09-10T00:21:35.941Z,1.7
2017-09-10T00:22:38.339Z,1.7
2017-09-10T00:23:40.727Z,1.7
2017-09-10T00:24:43.129Z,1.7
2017-09-10T00:25:45.544Z,1.8
2017-09-10T00:26:47.938Z,1.8
2017-09-10T00:27:50.330Z,1.6
2017-09-10T00:28:52.736Z,1.7
2017-09-10T00:29:55.127Z,1.7
2017-09-10T00:30:57.532Z,1.7
2017-09-10T00:32:00.265Z,1.8
2017-09-10T00:33:02.653Z,1.8
2017-09-10T00:34:05.051Z,1.7
2017-09-10T00:35:07.459Z,1.7
2017-09-10T00:36:09.855Z,1.7
2017-09-10T00:37:12.257Z,1.7
2017-09-10T00:38:14.647Z,1.7
2017-09-10T00:39:17.053Z,1.8
2017-09-10T00:40:19.450Z,1.8
2017-09-10T00:41:21.837Z,1.7
2017-09-10T00:42:24.573Z,1.8
2017-09-10T00:43:26.967Z,1.7
2017-09-10T00:44:29.368Z,1.7
2017-09-10T00:45:31.766Z,1.7
2017-09-10T00:46:34.154Z,1.6
2017-09-10T00:47:36.553Z,1.8
2017-09-10T00:48:38.944Z,1.7
2017-09-10T00:49:41.333Z,1.7
2017-09-10T00:50:43.734Z,1.7
2017-09-10T00:51:46.131Z,1.7
2017-09-10T00:52:48.536Z,1.7
2017-09-10T00:53:50.934Z,1.7
2017-09-10T00:54:53.327Z,1.7
2017-09-10T00:55:56.064Z,1.7
2017-09-10T00:56:58.468Z,1.6
2017-09-10T00:58:00.878Z,1.7
2017-09-10T00:59:03.270Z,1.7
2017-09-10T01:00:06.006Z,1.7
2017-09-10T01:01:08.400Z,1.7
2017-09-10T01:02:11.145Z,1.7
2017-09-10T01:03:13.542Z,1.7
2017-09-10T01:04:15.927Z,1.7
2017-09-10T01:05:18.326Z,1.7
2017-09-10T01:06:20.724Z,1.7
2017-09-10T01:07:23.118Z,1.7
2017-09-10T01:08:25.511Z,1.7
2017-09-10T01:09:27.911Z,1.7
2017-09-10T01:10:30.310Z,1.7
2017-09-10T01:11:33.075Z,1.6
2017-09-10T01:12:35.464Z,1.7
2017-09-10T01:13:37.860Z,1.6
2017-09-10T01:14:40.257Z,1.7
2017-09-10T01:15:42.661Z,1.6
2017-09-10T01:16:45.062Z,1.7
2017-09-10T01:17:47.453Z,1.7
2017-09-10T01:18:49.851Z,1.7
2017-09-10T01:19:52.255Z,1.7
2017-09-10T01:20:54.643Z,1.7
2017-09-10T01:21:57.053Z,1.7
2017-09-10T01:22:59.443Z,1.7
2017-09-10T01:24:01.838Z,1.7
2017-09-10T01:25:04.234Z,1.7
2017-09-10T01:26:07.017Z,1.7
2017-09-10T01:27:09.426Z,1.7
2017-09-10T01:28:11.834Z,1.7
2017-09-10T01:29:14.226Z,1.7
2017-09-10T01:30:16.627Z,1.7
2017-09-10T01:31:19.393Z,1.6
2017-09-10T01:32:21.794Z,1.7
2017-09-10T01:33:24.547Z,1.6
2017-09-10T01:34:27.335Z,1.7
2017-09-10T01:35:29.733Z,1.7
2017-09-10T01:36:32.490Z,1.7
2017-09-10T01:37:34.874Z,1.7
2017-09-10T01:38:37.266Z,1.6
2017-09-10T01:39:39.666Z,1.6
2017-09-10T01:40:42.061Z,1.7
2017-09-10T01:41:44.454Z,1.6
2017-09-10T01:42:46.853Z,1.7
2017-09-10T01:43:49.243Z,1.7
2017-09-10T01:44:51.651Z,1.7
2017-09-10T01:45:54.049Z,1.7
2017-09-10T01:46:56.435Z,1.7
2017-09-10T01:47:58.829Z,1.7
2017-09-10T01:49:01.241Z,1.7
2017-09-10T01:50:03.971Z,1.7
2017-09-10T01:51:06.366Z,1.7
2017-09-10T01:52:08.759Z,1.6
2017-09-10T01:53:11.153Z,1.6
2017-09-10T01:54:13.554Z,1.7
2017-09-10T01:55:15.950Z,1.6
2017-09-10T01:56:18.332Z,1.6
2017-09-10T01:57:20.725Z,1.7
2017-09-10T01:58:23.121Z,1.7
2017-09-10T01:59:25.519Z,1.7
2017-09-10T02:00:28.256Z,1.7
2017-09-10T02:01:30.643Z,1.7
2017-09-10T02:02:33.044Z,1.6
2017-09-10T02:03:35.442Z,1.6
2017-09-10T02:04:37.861Z,1.6
2017-09-10T02:05:40.263Z,1.6
2017-09-10T02:06:43.004Z,1.6
2017-09-10T02:07:45.397Z,1.6
2017-09-10T02:08:47.793Z,1.6
2017-09-10T02:09:50.198Z,1.7
2017-09-10T02:10:52.583Z,1.5
2017-09-10T02:11:54.980Z,1.6
2017-09-10T02:12:57.376Z,1.6
2017-09-10T02:13:59.776Z,1.6
2017-09-10T02:15:02.171Z,1.6
2017-09-10T02:16:04.561Z,1.6
2017-09-10T02:17:06.959Z,1.7
2017-09-10T02:18:09.350Z,1.6
2017-09-10T02:19:11.745Z,1.6
2017-09-10T02:20:14.148Z,1.6
2017-09-10T02:21:16.892Z,1.5
2017-09-10T02:22:19.628Z,1.7
2017-09-10T02:23:22.360Z,1.7
2017-09-10T02:24:24.755Z,1.5
2017-09-10T02:25:27.148Z,1.6
2017-09-10T02:26:29.880Z,1.6
2017-09-10T02:27:32.281Z,1.6
2017-09-10T02:28:34.673Z,1.5
2017-09-10T02:29:37.067Z,1.6
2017-09-10T02:30:39.471Z,1.7
2017-09-10T02:31:41.872Z,1.5
2017-09-10T02:32:44.264Z,1.5
2017-09-10T02:33:46.658Z,1.5
2017-09-10T02:34:49.054Z,1.6
2017-09-10T02:35:51.444Z,1.6
2017-09-10T02:36:53.847Z,1.6
2017-09-10T02:37:56.230Z,1.6
2017-09-10T02:38:58.624Z,1.7
2017-09-10T02:40:01.020Z,1.7
2017-09-10T02:41:03.416Z,1.7
2017-09-10T02:42:05.806Z,1.6
2017-09-10T02:43:08.200Z,1.7
2017-09-10T02:44:10.604Z,1.6
2017-09-10T02:45:12.999Z,1.6
2017-09-10T02:46:15.398Z,1.6
2017-09-10T02:47:17.790Z,1.5
2017-09-10T02:48:20.193Z,1.5
2017-09-10T02:49:22.587Z,1.5
2017-09-10T02:50:24.982Z,1.6
2017-09-10T02:51:27.371Z,1.6
2017-09-10T02:52:30.105Z,1.6
2017-09-10T02:53:32.498Z,1.6
2017-09-10T02:54:34.899Z,1.5
2017-09-10T02:55:37.292Z,1.5
2017-09-10T02:56:39.687Z,1.6
2017-09-10T02:57:42.075Z,1.6
2017-09-10T02:58:44.482Z,1.5
2017-09-10T02:59:46.872Z,1.6
2017-09-10T03:00:49.265Z,1.6
2017-09-10T03:01:51.660Z,1.5
2017-09-10T03:02:54.052Z,1.5
2017-09-10T03:03:56.446Z,1.6
2017-09-10T03:04:58.844Z,1.5
2017-09-10T03:06:01.569Z,1.6
2017-09-10T03:07:03.968Z,1.6
2017-09-10T03:08:06.357Z,1.6
2017-09-10T03:09:08.762Z,1.5
2017-09-10T03:10:11.149Z,1.6
2017-09-10T03:11:13.544Z,1.5
2017-09-10T03:12:15.937Z,1.5
2017-09-10T03:13:18.334Z,1.6
2017-09-10T03:14:20.731Z,1.5
2017-09-10T03:15:23.121Z,1.5
2017-09-10T03:16:25.524Z,1.6
2017-09-10T03:17:27.913Z,1.6
2017-09-10T03:18:30.308Z,1.6
2017-09-10T03:19:32.712Z,1.6
2017-09-10T03:20:35.436Z,1.6
2017-09-10T03:21:37.828Z,1.5
2017-09-10T03:22:40.573Z,1.5
2017-09-10T03:23:42.960Z,1.6
2017-09-10T03:24:45.359Z,1.5
2017-09-10T03:25:47.764Z,1.6
2017-09-10T03:26:50.144Z,1.6
2017-09-10T03:27:52.541Z,1.6
2017-09-10T03:28:54.940Z,1.5
2017-09-10T03:29:57.325Z,1.5
2017-09-10T03:30:59.726Z,1.6
2017-09-10T03:32:02.109Z,1.6
2017-09-10T03:33:04.513Z,1.6
2017-09-10T03:34:06.917Z,1.5
2017-09-10T03:35:09.305Z,1.5
2017-09-10T03:36:11.705Z,1.6
2017-09-10T03:37:14.101Z,1.5
2017-09-10T03:38:16.486Z,1.6
2017-09-10T03:39:18.883Z,1.5
2017-09-10T03:40:21.277Z,1.6
2017-09-10T03:41:23.664Z,1.5
2017-09-10T03:42:26.057Z,1.7
2017-09-10T03:43:28.452Z,1.6
2017-09-10T03:44:30.845Z,1.5
2017-09-10T03:45:33.239Z,1.5
2017-09-10T03:46:35.638Z,1.6
2017-09-10T03:47:38.035Z,1.5
2017-09-10T03:48:40.424Z,1.6
2017-09-10T03:49:42.832Z,1.5
2017-09-10T03:50:45.235Z,1.5
2017-09-10T03:51:47.974Z,1.5
2017-09-10T03:52:50.380Z,1.5
2017-09-10T03:53:53.469Z,1.5
2017-09-10T03:54:55.861Z,1.6
2017-09-10T03:55:58.261Z,1.5
2017-09-10T03:57:00.643Z,1.5
2017-09-10T03:58:03.042Z,1.5
2017-09-10T03:59:05.434Z,1.6
2017-09-10T04:00:07.827Z,1.6
2017-09-10T04:01:10.566Z,1.5
2017-09-10T04:02:12.957Z,1.5
2017-09-10T04:03:15.349Z,1.5
2017-09-10T04:04:17.741Z,1.6
2017-09-10T04:05:20.134Z,1.5
2017-09-10T04:06:22.871Z,1.6
2017-09-10T04:07:25.267Z,1.5
2017-09-10T04:08:27.681Z,1.5
2017-09-10T04:09:30.072Z,1.6
2017-09-10T04:10:32.811Z,1.5
2017-09-10T04:11:35.202Z,1.5
2017-09-10T04:12:37.592Z,1.6
2017-09-10T04:13:39.981Z,1.5
2017-09-10T04:14:42.379Z,1.6
2017-09-10T04:15:44.770Z,1.6
2017-09-10T04:16:47.510Z,1.5
2017-09-10T04:17:49.901Z,1.6
2017-09-10T04:18:52.290Z,1.6
2017-09-10T04:19:54.683Z,1.6
2017-09-10T04:20:57.413Z,1.5
2017-09-10T04:21:59.795Z,1.6
2017-09-10T04:23:02.192Z,1.6
2017-09-10T04:24:04.596Z,1.6
2017-09-10T04:25:06.986Z,1.6
2017-09-10T04:26:09.387Z,1.6
2017-09-10T04:27:11.784Z,1.6
2017-09-10T04:28:14.193Z,1.5
2017-09-10T04:29:16.932Z,1.6
2017-09-10T04:30:19.335Z,1.6
2017-09-10T04:31:21.728Z,1.6
2017-09-10T04:32:24.132Z,1.6
2017-09-10T04:33:26.526Z,1.5
2017-09-10T04:34:28.931Z,1.6
2017-09-10T04:35:31.324Z,1.6
2017-09-10T04:36:33.723Z,1.6
2017-09-10T04:37:36.129Z,1.6
2017-09-10T04:38:38.520Z,1.5
2017-09-10T04:39:40.921Z,1.5
2017-09-10T04:40:43.326Z,1.6
2017-09-10T04:41:45.718Z,1.6
2017-09-10T04:42:48.103Z,1.5
2017-09-10T04:43:50.499Z,1.6
2017-09-10T04:44:52.900Z,1.5
2017-09-10T04:45:55.293Z,1.6
2017-09-10T04:46:57.686Z,1.6
2017-09-10T04:48:00.096Z,1.5
2017-09-10T04:49:02.501Z,1.4
2017-09-10T04:50:04.908Z,1.6
2017-09-10T04:51:07.293Z,1.6
2017-09-10T04:52:09.686Z,1.6
2017-09-10T04:53:12.081Z,1.6
2017-09-10T04:54:14.810Z,1.6
2017-09-10T04:55:17.198Z,1.6
2017-09-10T04:56:19.597Z,1.5
2017-09-10T04:57:21.989Z,1.5
2017-09-10T04:58:24.385Z,1.6
2017-09-10T04:59:26.782Z,1.6
2017-09-10T05:00:29.185Z,1.6
2017-09-10T05:01:31.585Z,1.6
2017-09-10T05:02:33.988Z,1.5
2017-09-10T05:03:36.378Z,1.6
2017-09-10T05:04:38.781Z,1.6
2017-09-10T05:05:41.178Z,1.6
2017-09-10T05:06:43.574Z,1.6
2017-09-10T05:07:45.965Z,1.5
2017-09-10T05:08:48.356Z,1.6
2017-09-10T05:09:50.746Z,1.5
2017-09-10T05:10:53.150Z,1.6
2017-09-10T05:11:55.544Z,1.6
2017-09-10T05:12:57.941Z,1.5
2017-09-10T05:14:00.349Z,1.5
2017-09-10T05:15:02.752Z,1.5
2017-09-10T05:16:05.161Z,1.6
2017-09-10T05:17:07.896Z,1.6
2017-09-10T05:18:10.287Z,1.5
2017-09-10T05:19:12.684Z,1.6
2017-09-10T05:20:15.077Z,1.6
2017-09-10T05:21:17.480Z,1.6
2017-09-10T05:22:19.872Z,1.5
2017-09-10T05:23:22.256Z,1.5
2017-09-10T05:24:24.991Z,1.5
2017-09-10T05:25:27.390Z,1.5
2017-09-10T05:26:29.780Z,1.5
2017-09-10T05:27:32.170Z,1.5
2017-09-10T05:28:34.557Z,1.5
2017-09-10T05:29:36.968Z,1.6
2017-09-10T05:30:39.363Z,1.6
2017-09-10T05:31:41.753Z,1.5
2017-09-10T05:32:44.143Z,1.6
2017-09-10T05:33:46.548Z,1.6
2017-09-10T05:34:48.946Z,1.5
2017-09-10T05:35:51.347Z,1.6
2017-09-10T05:36:53.743Z,1.5
2017-09-10T05:37:56.482Z,1.5
2017-09-10T05:38:58.877Z,1.5
2017-09-10T05:40:01.272Z,1.6
2017-09-10T05:41:03.662Z,1.5
2017-09-10T05:42:06.056Z,1.5
2017-09-10T05:43:08.443Z,1.6
2017-09-10T05:44:10.844Z,1.6
2017-09-10T05:45:13.242Z,1.5
2017-09-10T05:46:15.634Z,1.6
2017-09-10T05:47:18.037Z,1.6
2017-09-10T05:48:20.421Z,1.5
2017-09-10T05:49:22.813Z,1.5
2017-09-10T05:50:25.210Z,1.6
2017-09-10T05:51:27.601Z,1.7
2017-09-10T05:52:29.995Z,1.7
2017-09-10T05:53:32.385Z,1.6
2017-09-10T05:54:34.787Z,1.5
2017-09-10T05:55:37.175Z,1.6
2017-09-10T05:56:39.915Z,1.7
2017-09-10T05:57:42.311Z,1.6
2017-09-10T05:58:44.703Z,1.6
2017-09-10T05:59:47.101Z,1.6
2017-09-10T06:00:49.513Z,1.6
2017-09-10T06:01:52.233Z,1.7
2017-09-10T06:02:54.975Z,1.6
2017-09-10T06:03:57.368Z,1.6
2017-09-10T06:04:59.772Z,1.5
2017-09-10T06:06:02.179Z,1.5
2017-09-10T06:07:04.570Z,1.6
2017-09-10T06:08:06.963Z,1.6
2017-09-10T06:09:09.366Z,1.6
2017-09-10T06:10:11.758Z,1.6
2017-09-10T06:11:14.162Z,1.7
2017-09-10T06:12:16.565Z,1.7
2017-09-10T06:13:18.974Z,1.7
2017-09-10T06:14:21.370Z,1.8
2017-09-10T06:15:23.767Z,1.7
2017-09-10T06:16:26.168Z,1.6
2017-09-10T06:17:28.566Z,1.7
2017-09-10T06:18:30.958Z,1.6
2017-09-10T06:19:33.358Z,1.8
2017-09-10T06:20:35.753Z,1.7
2017-09-10T06:21:38.491Z,1.7
2017-09-10T06:22:40.904Z,1.7
2017-09-10T06:23:43.317Z,1.7
2017-09-10T06:24:45.724Z,1.7
2017-09-10T06:25:48.117Z,1.7
2017-09-10T06:26:50.851Z,1.8
2017-09-10T06:27:53.258Z,1.8
2017-09-10T06:28:55.653Z,1.8
2017-09-10T06:29:58.054Z,1.7
2017-09-10T06:31:00.453Z,1.7
2017-09-10T06:32:02.861Z,1.8
2017-09-10T06:33:05.266Z,1.8
2017-09-10T06:34:07.669Z,1.7
2017-09-10T06:35:10.074Z,1.7
2017-09-10T06:36:12.478Z,1.7
2017-09-10T06:37:14.880Z,1.8
2017-09-10T06:38:17.284Z,1.7
2017-09-10T06:39:19.682Z,1.8
2017-09-10T06:40:22.776Z,1.8
2017-09-10T06:41:25.169Z,1.8
2017-09-10T06:42:27.901Z,1.8
2017-09-10T06:43:30.291Z,1.8
2017-09-10T06:44:32.689Z,1.9
2017-09-10T06:45:35.097Z,1.8
2017-09-10T06:46:37.484Z,1.8
2017-09-10T06:47:39.884Z,1.9
2017-09-10T06:48:42.288Z,1.9
2017-09-10T06:49:44.687Z,1.6
2017-09-10T06:50:47.090Z,1.9
2017-09-10T06:51:49.841Z,1.9
2017-09-10T06:52:52.244Z,1.9
2017-09-10T06:53:54.648Z,1.9
2017-09-10T06:54:57.063Z,1.9
2017-09-10T06:55:59.476Z,1.9
2017-09-10T06:57:01.879Z,1.9
2017-09-10T06:58:04.272Z,1.9
2017-09-10T06:59:06.680Z,1.9
2017-09-10T07:00:09.104Z,1.9
2017-09-10T07:01:11.499Z,1.9
2017-09-10T07:02:13.906Z,1.9
2017-09-10T07:03:16.320Z,1.9
2017-09-10T07:04:18.719Z,1.9
2017-09-10T07:05:21.126Z,2
2017-09-10T07:06:23.532Z,2
2017-09-10T07:07:25.922Z,1.9
2017-09-10T07:08:28.324Z,2
2017-09-10T07:09:30.725Z,2
2017-09-10T07:10:33.125Z,2
2017-09-10T07:11:35.525Z,2
2017-09-10T07:12:37.918Z,2
2017-09-10T07:13:40.350Z,2
2017-09-10T07:14:42.756Z,2
2017-09-10T07:15:45.152Z,2
2017-09-10T07:16:47.564Z,2
2017-09-10T07:17:49.960Z,2
2017-09-10T07:18:53.037Z,2
2017-09-10T07:19:55.785Z,2
2017-09-10T07:20:58.184Z,2
2017-09-10T07:22:00.592Z,2
2017-09-10T07:23:02.987Z,2
2017-09-10T07:24:05.728Z,2
2017-09-10T07:25:08.119Z,2
2017-09-10T07:26:10.861Z,2
2017-09-10T07:27:13.258Z,2
2017-09-10T07:28:15.657Z,2
2017-09-10T07:29:18.057Z,2
2017-09-10T07:30:20.455Z,2
2017-09-10T07:31:23.211Z,2
2017-09-10T07:32:25.618Z,2
2017-09-10T07:33:28.009Z,2.1
2017-09-10T07:34:30.417Z,2
2017-09-10T07:35:32.831Z,2.1
2017-09-10T07:36:35.234Z,2
2017-09-10T07:37:37.973Z,2
2017-09-10T07:38:40.717Z,2.1
2017-09-10T07:39:43.112Z,2.1
2017-09-10T07:40:45.509Z,2.1
2017-09-10T07:41:47.911Z,2.1
2017-09-10T07:42:50.310Z,2.1
2017-09-10T07:43:52.706Z,2.1
2017-09-10T07:44:55.110Z,2.1
2017-09-10T07:45:57.513Z,2.1
2017-09-10T07:46:59.917Z,2
2017-09-10T07:48:02.319Z,2.1
2017-09-10T07:49:04.713Z,2.1
2017-09-10T07:50:07.107Z,2.1
2017-09-10T07:51:09.515Z,2.1
2017-09-10T07:52:11.927Z,2.1
2017-09-10T07:53:14.328Z,2.1
2017-09-10T07:54:16.727Z,2.1
2017-09-10T07:55:19.459Z,2.1
2017-09-10T07:56:21.857Z,2.1
2017-09-10T07:57:24.258Z,2.1
2017-09-10T07:58:26.660Z,2.1
2017-09-10T07:59:29.068Z,2.1
2017-09-10T08:00:31.471Z,2.1
2017-09-10T08:01:33.866Z,2.1
2017-09-10T08:02:36.270Z,2.1
2017-09-10T08:03:38.661Z,2.2
2017-09-10T08:04:41.057Z,2.2
2017-09-10T08:05:43.457Z,2.1
2017-09-10T08:06:45.862Z,2.2
2017-09-10T08:07:48.269Z,2.2
2017-09-10T08:08:50.679Z,2.2
2017-09-10T08:09:53.094Z,2.2
2017-09-10T08:10:55.495Z,2.2
2017-09-10T08:11:57.888Z,2.2
2017-09-10T08:13:00.297Z,2.2
2017-09-10T08:14:02.696Z,2.2
2017-09-10T08:15:05.091Z,2.2
2017-09-10T08:16:07.507Z,2.2
2017-09-10T08:17:09.898Z,2.2
2017-09-10T08:18:12.301Z,2.2
2017-09-10T08:19:14.712Z,2.2
2017-09-10T08:20:17.112Z,2.2
2017-09-10T08:21:19.513Z,2.2
2017-09-10T08:22:21.922Z,2.3
2017-09-10T08:23:24.317Z,2.2
2017-09-10T08:24:26.724Z,2.3
2017-09-10T08:25:29.129Z,2.2
2017-09-10T08:26:31.520Z,2.3
2017-09-10T08:27:33.920Z,2.3
2017-09-10T08:28:36.665Z,2.3
2017-09-10T08:29:39.065Z,2.3
2017-09-10T08:30:41.464Z,2.4
2017-09-10T08:31:44.199Z,2.3
2017-09-10T08:32:46.601Z,2.4
2017-09-10T08:33:49.359Z,2.4
2017-09-10T08:34:51.753Z,2.4
2017-09-10T08:35:54.161Z,2.4
2017-09-10T08:36:56.570Z,2.4
2017-09-10T08:37:58.976Z,2.4
2017-09-10T08:39:01.377Z,2.4
2017-09-10T08:40:03.788Z,2.4
2017-09-10T08:41:06.286Z,2.4
2017-09-10T08:42:08.694Z,2.5
2017-09-10T08:43:11.108Z,2.4
2017-09-10T08:44:13.527Z,2.5
2017-09-10T08:45:15.939Z,2.5
2017-09-10T08:46:18.343Z,2.5
2017-09-10T08:47:20.750Z,2.5
2017-09-10T08:48:23.145Z,2.6
2017-09-10T08:49:25.541Z,2.5
2017-09-10T08:50:27.964Z,2.6
2017-09-10T08:51:30.371Z,2.6
2017-09-10T08:52:32.781Z,2.6
2017-09-10T08:53:35.203Z,2.6
2017-09-10T08:54:37.623Z,2.7
2017-09-10T08:55:40.367Z,2.7
2017-09-10T08:56:42.776Z,2.7
2017-09-10T08:57:45.175Z,2.7
2017-09-10T08:58:47.581Z,2.8
2017-09-10T08:59:50.005Z,2.8
2017-09-10T09:00:52.402Z,2.8
2017-09-10T09:01:54.811Z,2.8
2017-09-10T09:02:57.213Z,2.8
2017-09-10T09:03:59.983Z,2.8
2017-09-10T09:05:02.396Z,2.8
2017-09-10T09:06:04.815Z,2.9
2017-09-10T09:07:07.581Z,2.9
2017-09-10T09:08:09.997Z,2.9
2017-09-10T09:09:12.412Z,3
2017-09-10T09:10:14.829Z,3
2017-09-10T09:11:17.241Z,3
2017-09-10T09:12:19.647Z,3
2017-09-10T09:13:22.055Z,3
2017-09-10T09:14:24.467Z,3.1
2017-09-10T09:15:26.877Z,3.1
2017-09-10T09:16:29.287Z,3
2017-09-10T09:17:32.038Z,3.1
2017-09-10T09:18:34.449Z,3.1
2017-09-10T09:19:36.858Z,3.2
2017-09-10T09:20:39.608Z,3.2
2017-09-10T09:21:42.029Z,3.2
2017-09-10T09:22:44.437Z,3.2
2017-09-10T09:23:46.844Z,3.2
2017-09-10T09:24:49.265Z,3.3
2017-09-10T09:25:52.010Z,3.3
2017-09-10T09:26:54.423Z,3.3
2017-09-10T09:27:56.830Z,3.3
2017-09-10T09:28:59.244Z,3.4
2017-09-10T09:30:01.660Z,3.4
2017-09-10T09:31:04.069Z,3.4
2017-09-10T09:32:06.477Z,3.4
2017-09-10T09:33:08.894Z,3.5
2017-09-10T09:34:11.303Z,3.4
2017-09-10T09:35:13.730Z,3.4
2017-09-10T09:36:16.146Z,3.5
2017-09-10T09:37:18.553Z,3.5
2017-09-10T09:38:20.973Z,3.6
2017-09-10T09:39:23.395Z,3.5
2017-09-10T09:40:25.816Z,3.6
2017-09-10T09:41:28.231Z,3.6
2017-09-10T09:42:30.981Z,3.6
2017-09-10T09:43:33.396Z,3.5
2017-09-10T09:44:35.813Z,3.6
2017-09-10T09:45:38.222Z,3.6
2017-09-10T09:46:40.636Z,3.6
2017-09-10T09:47:43.055Z,3.7
2017-09-10T09:48:45.464Z,3.7
2017-09-10T09:49:47.878Z,3.7
2017-09-10T09:50:50.303Z,3.7
2017-09-10T09:51:52.714Z,3.7
2017-09-10T09:52:55.464Z,3.7
2017-09-10T09:53:57.870Z,3.7
2017-09-10T09:55:00.283Z,3.7
2017-09-10T09:56:02.707Z,3.7
2017-09-10T09:57:05.118Z,3.7
2017-09-10T09:58:07.532Z,3.8
2017-09-10T09:59:09.939Z,3.7
2017-09-10T10:00:12.348Z,3.8
2017-09-10T10:01:14.761Z,3.8
2017-09-10T10:02:17.171Z,3.9
2017-09-10T10:03:19.580Z,3.9
2017-09-10T10:04:22.330Z,3.8
2017-09-10T10:05:24.730Z,3.8
2017-09-10T10:06:27.147Z,4.1
2017-09-10T10:07:29.551Z,3.8
2017-09-10T10:08:31.959Z,3.8
2017-09-10T10:09:34.372Z,3.8
2017-09-10T10:10:36.788Z,3.8
2017-09-10T10:11:39.193Z,3.8
2017-09-10T10:12:41.607Z,4
2017-09-10T10:13:44.017Z,3.9
2017-09-10T10:14:46.430Z,3.7
2017-09-10T10:15:48.851Z,3.8
2017-09-10T10:16:51.263Z,3.9
2017-09-10T10:17:53.669Z,3.8
2017-09-10T10:18:56.433Z,4.2
2017-09-10T10:19:59.193Z,3.8
2017-09-10T10:21:01.603Z,3.8
2017-09-10T10:22:04.011Z,3.8
2017-09-10T10:23:06.416Z,3.8
2017-09-10T10:24:08.825Z,3.9
2017-09-10T10:25:11.238Z,3.9
2017-09-10T10:26:13.649Z,3.8
2017-09-10T10:27:16.064Z,3.9
2017-09-10T10:28:18.478Z,3.9
2017-09-10T10:29:20.886Z,3.9
2017-09-10T10:30:23.312Z,3.9
2017-09-10T10:31:25.721Z,4
2017-09-10T10:32:28.119Z,4
2017-09-10T10:33:30.535Z,4.4
2017-09-10T10:34:32.944Z,3.9
2017-09-10T10:35:35.373Z,3.9
2017-09-10T10:36:37.784Z,3.9
2017-09-10T10:37:40.193Z,3.9
2017-09-10T10:38:42.596Z,3.9
2017-09-10T10:39:45.003Z,4.1
2017-09-10T10:40:47.422Z,3.9
2017-09-10T10:41:49.829Z,3.9
2017-09-10T10:42:52.574Z,3.9
2017-09-10T10:43:54.981Z,4.3
2017-09-10T10:44:57.398Z,3.9
2017-09-10T10:45:59.810Z,3.9
2017-09-10T10:47:02.224Z,3.9
2017-09-10T10:48:04.629Z,4
2017-09-10T10:49:07.032Z,4
2017-09-10T10:50:09.784Z,3.9
2017-09-10T10:51:12.192Z,4
2017-09-10T10:52:14.955Z,3.9
2017-09-10T10:53:17.366Z,3.9
2017-09-10T10:54:19.769Z,3.8
2017-09-10T10:55:22.180Z,3.9
2017-09-10T10:56:24.599Z,3.9
2017-09-10T10:57:27.006Z,3.9
2017-09-10T10:58:29.409Z,3.9
2017-09-10T10:59:31.823Z,3.9
2017-09-10T11:00:34.236Z,3.9
2017-09-10T11:01:36.667Z,3.9
2017-09-10T11:02:39.071Z,3.9
2017-09-10T11:03:41.473Z,4.1
2017-09-10T11:04:43.881Z,4
2017-09-10T11:05:46.296Z,3.8
2017-09-10T11:06:48.713Z,3.9
2017-09-10T11:07:51.122Z,3.9
2017-09-10T11:08:53.531Z,3.9
2017-09-10T11:09:55.944Z,3.9
2017-09-10T11:10:58.340Z,3.9
2017-09-10T11:12:01.091Z,3.9
2017-09-10T11:13:03.499Z,3.9
2017-09-10T11:14:05.902Z,4
2017-09-10T11:15:08.311Z,4
2017-09-10T11:16:10.728Z,4
2017-09-10T11:17:13.135Z,4
2017-09-10T11:18:15.547Z,4
2017-09-10T11:19:17.954Z,4
2017-09-10T11:20:20.358Z,4.1
2017-09-10T11:21:22.775Z,4.1
2017-09-10T11:22:25.184Z,4.2
2017-09-10T11:23:27.597Z,4.1
2017-09-10T11:24:30.008Z,4.1
2017-09-10T11:25:32.416Z,4.2
2017-09-10T11:26:34.838Z,4.1
2017-09-10T11:27:37.252Z,4.1
2017-09-10T11:28:39.653Z,4.1
2017-09-10T11:29:42.074Z,4.1
2017-09-10T11:30:44.481Z,4
2017-09-10T11:31:46.892Z,4
2017-09-10T11:32:49.303Z,4
2017-09-10T11:33:51.715Z,4
2017-09-10T11:34:54.145Z,4
2017-09-10T11:35:56.560Z,4
2017-09-10T11:36:58.970Z,4.1
2017-09-10T11:38:01.725Z,4
2017-09-10T11:39:04.131Z,4
2017-09-10T11:40:06.893Z,4.1
2017-09-10T11:41:09.303Z,4.1
2017-09-10T11:42:11.717Z,4.1
2017-09-10T11:43:14.462Z,4
2017-09-10T11:44:16.871Z,4.4
2017-09-10T11:45:19.275Z,4.1
2017-09-10T11:46:21.702Z,4.4
2017-09-10T11:47:24.560Z,4.1
2017-09-10T11:48:26.967Z,4.1
2017-09-10T11:49:29.383Z,4
2017-09-10T11:50:31.792Z,4
2017-09-10T11:51:34.204Z,4
2017-09-10T11:52:36.622Z,4.1
2017-09-10T11:53:39.037Z,4.1
2017-09-10T11:54:41.451Z,4.1
2017-09-10T11:55:43.863Z,4.1
2017-09-10T11:56:46.279Z,4.1
2017-09-10T11:57:48.691Z,4.1
2017-09-10T11:58:51.111Z,4.1
2017-09-10T11:59:53.521Z,4.1
2017-09-10T12:00:55.935Z,4.1
2017-09-10T12:01:58.345Z,4.2
2017-09-10T12:03:00.750Z,4.3
2017-09-10T12:04:03.175Z,4.3
2017-09-10T12:05:05.585Z,4.1
2017-09-10T12:06:08.005Z,4.2
2017-09-10T12:07:10.416Z,4.2
2017-09-10T12:08:12.825Z,4.2
2017-09-10T12:09:15.243Z,4.3
2017-09-10T12:10:17.645Z,4.3
2017-09-10T12:11:20.115Z,4.4
2017-09-10T12:12:22.534Z,4.4
2017-09-10T12:13:24.941Z,4.4
2017-09-10T12:14:27.357Z,4.4
2017-09-10T12:15:29.769Z,4.5
2017-09-10T12:16:32.195Z,4.4
2017-09-10T12:17:34.614Z,4.5
2017-09-10T12:18:37.035Z,4.5
2017-09-10T12:19:39.436Z,4.5
2017-09-10T12:20:41.846Z,4.5
2017-09-10T12:21:44.257Z,4.4
2017-09-10T12:22:46.667Z,4.5
2017-09-10T12:23:49.084Z,4.4
2017-09-10T12:24:51.489Z,4.4
2017-09-10T12:25:53.915Z,4.4
2017-09-10T12:26:56.330Z,4.3
2017-09-10T12:27:59.092Z,4.3
2017-09-10T12:29:01.505Z,4.2
2017-09-10T12:30:04.253Z,4.3
2017-09-10T12:31:06.673Z,4.3
2017-09-10T12:32:09.095Z,4.3
2017-09-10T12:33:11.512Z,4.3
2017-09-10T12:34:14.253Z,4.3
2017-09-10T12:35:16.664Z,4.3
2017-09-10T12:36:19.099Z,4.3
2017-09-10T12:37:21.502Z,4.5
2017-09-10T12:38:23.905Z,4.4
2017-09-10T12:39:26.319Z,4.3
2017-09-10T12:40:28.736Z,4.4
2017-09-10T12:41:31.512Z,4.5
2017-09-10T12:42:33.929Z,4.4
2017-09-10T12:43:36.335Z,4.4
2017-09-10T12:44:38.748Z,4.3
2017-09-10T12:45:41.160Z,4.3
2017-09-10T12:46:43.571Z,4.3
2017-09-10T12:47:45.982Z,4.3
2017-09-10T12:48:48.411Z,4.3
2017-09-10T12:49:50.816Z,4.3
2017-09-10T12:50:53.238Z,4.4
2017-09-10T12:51:55.642Z,4.4
2017-09-10T12:52:58.053Z,4.3
2017-09-10T12:54:00.466Z,4.4
2017-09-10T12:55:02.874Z,4.4
2017-09-10T12:56:05.292Z,4.4
2017-09-10T12:57:07.711Z,4.4
2017-09-10T12:58:10.111Z,4.4
2017-09-10T12:59:12.534Z,4.4
2017-09-10T13:00:14.965Z,4.4
2017-09-10T13:01:17.372Z,4.4
2017-09-10T13:02:19.788Z,4.4
2017-09-10T13:03:22.199Z,4.5
2017-09-10T13:04:24.602Z,4.4
2017-09-10T13:05:27.015Z,4.5
2017-09-10T13:06:29.427Z,4.5
2017-09-10T13:07:31.846Z,4.6
2017-09-10T13:08:34.260Z,4.5
2017-09-10T13:09:36.706Z,4.6
2017-09-10T13:10:39.119Z,4.3
2017-09-10T13:11:41.535Z,4.2
2017-09-10T13:12:43.952Z,4.4
2017-09-10T13:13:46.362Z,4.5
2017-09-10T13:14:48.771Z,4.5
2017-09-10T13:15:51.183Z,4.5
2017-09-10T13:16:53.605Z,4.4
2017-09-10T13:17:56.012Z,4.5
2017-09-10T13:18:58.432Z,4.5
2017-09-10T13:20:00.843Z,4.5
2017-09-10T13:21:03.607Z,4.5
2017-09-10T13:22:06.022Z,4.6
2017-09-10T13:23:08.441Z,4.6
2017-09-10T13:24:10.844Z,4.6
2017-09-10T13:25:13.590Z,4.6
2017-09-10T13:26:16.000Z,4.6
2017-09-10T13:27:18.410Z,4.6
2017-09-10T13:28:20.859Z,4.6
2017-09-10T13:29:23.285Z,4.6
2017-09-10T13:30:25.710Z,4.5
2017-09-10T13:31:28.143Z,4.6
2017-09-10T13:32:30.569Z,4.7
2017-09-10T13:33:33.380Z,4.7
2017-09-10T13:34:35.811Z,4.5
2017-09-10T13:35:38.242Z,4.6
2017-09-10T13:36:40.668Z,4.6
2017-09-10T13:37:43.092Z,4.6
2017-09-10T13:38:45.515Z,4.6
2017-09-10T13:39:47.939Z,4.6
2017-09-10T13:40:50.369Z,4.6
2017-09-10T13:41:52.801Z,4.7
2017-09-10T13:42:55.252Z,4.6
2017-09-10T13:43:57.700Z,4.6
2017-09-10T13:45:00.129Z,4.6
2017-09-10T13:46:02.560Z,4.6
2017-09-10T13:47:05.340Z,4.6
2017-09-10T13:48:07.793Z,4.6
2017-09-10T13:49:10.221Z,4.6
2017-09-10T13:50:12.635Z,4.6
2017-09-10T13:51:15.059Z,4.7
2017-09-10T13:52:17.482Z,4.9
2017-09-10T13:53:19.953Z,4.7
2017-09-10T13:54:22.380Z,4.6
2017-09-10T13:55:24.818Z,4.7
2017-09-10T13:56:27.239Z,4.7
2017-09-10T13:57:29.669Z,4.7
2017-09-10T13:58:32.116Z,4.6
2017-09-10T13:59:34.919Z,4.7
2017-09-10T14:00:37.343Z,4.6
2017-09-10T14:01:39.772Z,4.6
2017-09-10T14:02:42.192Z,4.6
2017-09-10T14:03:44.616Z,4.6
2017-09-10T14:04:47.049Z,4.4
2017-09-10T14:05:49.473Z,4.5
2017-09-10T14:06:51.903Z,4.5
2017-09-10T14:07:54.359Z,4.5
2017-09-10T14:08:56.788Z,4.4
2017-09-10T14:09:59.199Z,4.5
2017-09-10T14:11:01.615Z,4.5
2017-09-10T14:12:04.035Z,4.5
2017-09-10T14:13:06.799Z,4.5
2017-09-10T14:14:09.229Z,4.5
2017-09-10T14:15:11.661Z,4.5
2017-09-10T14:16:14.083Z,4.5
2017-09-10T14:17:16.514Z,4.4
2017-09-10T14:18:18.948Z,4.3
2017-09-10T14:19:21.372Z,4.4
2017-09-10T14:20:23.800Z,4.3
2017-09-10T14:21:26.215Z,4.3
2017-09-10T14:22:28.655Z,4.3
2017-09-10T14:23:31.091Z,4.3
2017-09-10T14:24:33.508Z,4.2